Time;durP1;ratioP1;P1;durP2;ratioP2;P2;SDS_P1;SDS_P2;PMS_P1;PMS_P2;Temp;Humidity;BMP_temperature;BMP_pressure;BME280_temperature;BME280_humidity;BME280_pressure;Samples;Min_cycle;Max_cycle;Signal;HPM_P1;HPM_P2
2022/07/08 00:00:35;;;;;;;7.72;3.58;;;16.40;99.90;;;;;;5064365;28;20040;-70
2022/07/08 00:03:01;;;;;;;6.70;4.03;;;16.40;99.90;;;;;;5061771;28;20033;-71
2022/07/08 00:05:29;;;;;;;13.80;4.30;;;16.40;99.90;;;;;;5063441;28;20040;-70
2022/07/08 00:07:55;;;;;;;6.40;3.80;;;16.40;99.90;;;;;;5060969;28;20499;-70
2022/07/08 00:10:21;;;;;;;6.60;3.42;;;16.40;99.90;;;;;;5044620;28;20062;-70
2022/07/08 00:12:47;;;;;;;7.28;3.88;;;16.50;99.90;;;;;;5045173;28;20031;-72
2022/07/08 00:15:13;;;;;;;8.60;4.30;;;16.40;99.90;;;;;;5062931;28;20071;-70
2022/07/08 00:17:39;;;;;;;7.95;3.50;;;16.50;99.90;;;;;;5060987;28;20025;-72
2022/07/08 00:20:06;;;;;;;10.88;4.95;;;16.40;99.90;;;;;;5061843;28;20230;-71
2022/07/08 00:22:33;;;;;;;6.93;4.15;;;16.40;99.90;;;;;;5062423;28;20032;-72
2022/07/08 00:24:59;;;;;;;9.70;5.15;;;16.40;99.90;;;;;;5062484;28;20017;-71
2022/07/08 00:27:25;;;;;;;10.25;4.28;;;16.40;99.90;;;;;;5060138;28;20751;-69
2022/07/08 00:29:51;;;;;;;9.15;4.32;;;16.30;99.90;;;;;;5061672;28;20040;-69
2022/07/08 00:32:16;;;;;;;5.63;4.18;;;16.30;99.90;;;;;;5061766;28;20017;-69
2022/07/08 00:34:42;;;;;;;9.57;5.00;;;16.20;99.90;;;;;;5060508;28;20040;-69
2022/07/08 00:37:08;;;;;;;12.82;4.40;;;16.30;99.90;;;;;;5060528;28;20032;-70
2022/07/08 00:39:34;;;;;;;8.00;4.38;;;16.30;99.90;;;;;;5061517;28;20021;-72
2022/07/08 00:42:00;;;;;;;6.57;4.65;;;16.30;99.90;;;;;;5061987;28;20027;-71
2022/07/08 00:44:26;;;;;;;6.45;4.45;;;16.30;99.90;;;;;;5052066;28;20369;-70
2022/07/08 00:46:52;;;;;;;11.90;5.20;;;16.20;99.90;;;;;;5063268;28;20032;-71
2022/07/08 00:49:18;;;;;;;5.15;4.60;;;16.20;99.90;;;;;;5060677;28;20504;-71
2022/07/08 00:51:46;;;;;;;7.28;5.00;;;16.20;99.90;;;;;;5059690;28;20187;-71
2022/07/08 00:54:21;;;;;;;7.03;4.68;;;16.20;99.90;;;;;;5061977;28;20052;-70
2022/07/08 00:56:47;;;;;;;8.80;5.40;;;16.20;99.90;;;;;;5051548;28;20036;-72
2022/07/08 00:59:13;;;;;;;8.57;4.75;;;16.10;99.90;;;;;;5051821;28;20036;-70
2022/07/08 01:01:39;;;;;;;7.20;4.82;;;16.10;99.90;;;;;;5050106;28;20028;-70
2022/07/08 01:04:05;;;;;;;8.13;4.68;;;16.00;99.90;;;;;;5051429;28;20105;-70
2022/07/08 01:06:31;;;;;;;7.60;4.57;;;16.00;99.90;;;;;;5051487;28;20112;-70
2022/07/08 01:08:58;;;;;;;10.23;4.43;;;16.00;99.90;;;;;;5051390;28;20448;-70
2022/07/08 01:11:25;;;;;;;7.13;4.70;;;16.00;99.90;;;;;;5051443;28;20036;-70
2022/07/08 01:13:51;;;;;;;;;;;16.10;99.90;;;;;;5051807;28;20052;-70
2022/07/08 01:16:17;;;;;;;6.97;4.78;;;16.10;99.90;;;;;;5050433;28;19911;-70
2022/07/08 01:18:42;;;;;;;4.85;3.95;;;16.10;99.90;;;;;;5051206;28;20017;-70
2022/07/08 01:21:08;;;;;;;5.35;4.10;;;16.00;99.90;;;;;;5051243;28;20481;-71
2022/07/08 01:23:34;;;;;;;11.15;5.07;;;16.10;99.90;;;;;;5051092;28;20065;-72
2022/07/08 01:26:02;;;;;;;6.53;4.25;;;16.10;99.90;;;;;;5051185;28;20033;-71
2022/07/08 01:28:27;;;;;;;6.13;4.55;;;16.20;99.90;;;;;;5051115;28;20017;-70
2022/07/08 01:30:53;;;;;;;9.55;4.38;;;16.20;99.90;;;;;;5050927;28;20554;-70
2022/07/08 01:33:19;;;;;;;9.35;4.20;;;16.20;99.90;;;;;;5050736;28;20376;-71
2022/07/08 01:35:45;;;;;;;11.02;4.57;;;16.20;99.90;;;;;;5051868;28;20044;-70
2022/07/08 01:38:11;;;;;;;7.72;4.60;;;16.30;99.90;;;;;;5052603;28;20037;-71
2022/07/08 01:40:36;;;;;;;9.77;5.18;;;16.30;99.90;;;;;;5051010;28;20112;-71
2022/07/08 01:43:03;;;;;;;11.85;5.00;;;16.30;99.90;;;;;;5050906;28;20029;-69
2022/07/08 01:45:28;;;;;;;8.98;4.72;;;16.20;99.90;;;;;;5050736;28;20094;-70
2022/07/08 01:47:54;;;;;;;8.30;4.53;;;16.20;99.90;;;;;;5054946;28;20041;-69
2022/07/08 01:50:20;;;;;;;7.38;4.90;;;16.20;99.90;;;;;;5070583;28;20067;-69
2022/07/08 01:52:46;;;;;;;8.88;5.20;;;16.20;99.90;;;;;;5070101;28;20063;-69
2022/07/08 01:55:11;;;;;;;9.95;5.55;;;16.30;99.90;;;;;;5070502;28;20089;-72
2022/07/08 01:57:37;;;;;;;9.70;5.38;;;16.30;99.90;;;;;;5070647;28;20055;-69
2022/07/08 02:00:05;;;;;;;8.68;5.10;;;16.30;99.90;;;;;;5070401;28;20025;-71
2022/07/08 02:02:30;;;;;;;7.63;5.68;;;16.30;99.90;;;;;;5070256;28;20077;-71
2022/07/08 02:04:56;;;;;;;9.77;5.72;;;16.40;99.90;;;;;;5070388;28;20133;-70
2022/07/08 02:07:22;;;;;;;7.25;5.05;;;16.30;99.90;;;;;;5069457;28;20052;-68
2022/07/08 02:09:48;;;;;;;9.35;5.82;;;16.30;99.90;;;;;;5070378;28;20056;-67
2022/07/08 02:12:19;;;;;;;9.82;5.63;;;16.30;99.90;;;;;;5070224;28;20521;-68
2022/07/08 02:15:01;;;;;;;7.25;5.15;;;16.30;99.90;;;;;;5070334;28;20035;-69
2022/07/08 02:17:32;;;;;;;8.23;5.35;;;16.30;99.90;;;;;;5070188;28;20052;-70
2022/07/08 02:19:58;;;;;;;11.63;5.25;;;16.30;99.90;;;;;;5070098;28;20024;-66
2022/07/08 02:22:24;;;;;;;9.23;5.28;;;16.20;99.90;;;;;;5070016;28;20353;-66
2022/07/08 02:24:50;;;;;;;6.60;5.20;;;16.30;99.90;;;;;;5070173;28;20031;-68
2022/07/08 02:27:16;;;;;;;7.47;4.93;;;16.30;99.90;;;;;;5051701;28;20033;-70
2022/07/08 02:29:41;;;;;;;7.03;4.75;;;16.30;99.90;;;;;;5070852;28;20503;-68
2022/07/08 02:32:07;;;;;;;8.38;4.88;;;16.30;99.90;;;;;;5070556;28;20028;-68
2022/07/08 02:34:33;;;;;;;6.45;4.50;;;16.30;99.90;;;;;;5069740;28;20140;-69
2022/07/08 02:36:59;;;;;;;6.85;4.18;;;16.30;99.90;;;;;;5069879;28;20587;-68
2022/07/08 02:39:25;;;;;;;6.10;4.68;;;16.30;99.90;;;;;;5069793;28;20031;-69
2022/07/08 02:41:51;;;;;;;9.43;4.60;;;16.30;99.90;;;;;;5069790;28;20060;-69
2022/07/08 02:44:18;;;;;;;6.45;4.10;;;16.30;99.90;;;;;;5069832;28;20380;-70
2022/07/08 02:46:45;;;;;;;8.65;4.68;;;16.30;99.90;;;;;;5069645;28;20538;-71
2022/07/08 02:49:11;;;;;;;7.85;4.57;;;16.30;99.90;;;;;;5069480;28;20052;-68
2022/07/08 02:51:37;;;;;;;10.70;4.72;;;16.30;99.90;;;;;;5069777;28;20396;-70
2022/07/08 02:54:04;;;;;;;9.07;3.78;;;16.20;99.90;;;;;;5069561;28;20584;-70
2022/07/08 02:56:34;;;;;;;10.35;4.75;;;16.30;99.90;;;;;;5069676;28;20056;-69
2022/07/08 02:59:00;;;;;;;6.82;3.85;;;16.30;99.90;;;;;;5051593;28;20040;-70
2022/07/08 03:01:26;;;;;;;7.00;4.35;;;16.30;99.90;;;;;;5069761;28;20090;-70
2022/07/08 03:03:52;;;;;;;6.07;4.57;;;16.20;99.90;;;;;;5069787;28;20500;-70
2022/07/08 03:06:18;;;;;;;9.25;4.80;;;16.20;99.90;;;;;;5069706;28;20307;-70
2022/07/08 03:08:44;;;;;;;5.50;4.13;;;16.20;99.90;;;;;;5051535;28;20106;-70
2022/07/08 03:11:10;;;;;;;8.15;4.38;;;16.30;99.90;;;;;;5069521;28;20122;-69
2022/07/08 03:13:36;;;;;;;6.35;4.60;;;16.30;99.90;;;;;;5069766;28;20158;-68
2022/07/08 03:16:06;;;;;;;6.18;4.78;;;16.30;99.90;;;;;;5069714;28;20028;-68
2022/07/08 03:18:33;;;;;;;6.43;4.50;;;16.20;99.90;;;;;;5069507;28;20548;-70
2022/07/08 03:20:59;;;;;;;6.90;4.20;;;16.30;99.90;;;;;;5069523;28;20040;-69
2022/07/08 03:23:24;;;;;;;9.10;4.30;;;16.30;99.90;;;;;;5070679;28;20047;-69
2022/07/08 03:25:50;;;;;;;7.10;4.57;;;16.30;99.90;;;;;;5069920;28;20032;-70
2022/07/08 03:28:16;;;;;;;12.07;4.32;;;16.30;99.90;;;;;;5069470;28;20588;-70
2022/07/08 03:30:41;;;;;;;7.15;4.72;;;16.40;99.90;;;;;;5069176;28;20047;-69
2022/07/08 03:33:07;;;;;;;8.00;4.10;;;16.40;99.90;;;;;;5069392;28;20380;-69
2022/07/08 03:35:33;;;;;;;7.50;4.82;;;16.40;99.90;;;;;;5069440;28;20126;-69
2022/07/08 03:37:59;;;;;;;7.82;5.13;;;16.40;99.90;;;;;;5069451;28;20539;-67
2022/07/08 03:43:09;;;;;;;6.75;4.43;;;16.40;99.90;;;;;;5073183;28;20144;-68
2022/07/08 03:45:34;;;;;;;12.32;4.80;;;16.40;99.90;;;;;;5073008;28;20111;-66
2022/07/08 03:48:03;;;;;;;7.70;4.72;;;16.40;99.90;;;;;;5072764;28;20094;-69
2022/07/08 03:50:29;;;;;;;6.80;4.60;;;16.40;99.90;;;;;;5072749;28;20040;-69
2022/07/08 03:52:55;;;;;;;6.22;4.63;;;16.40;99.90;;;;;;5072717;28;20052;-70
2022/07/08 03:55:23;;;;;;;11.15;5.50;;;16.40;99.90;;;;;;5072689;28;20059;-69
2022/07/08 03:57:49;;;;;;;8.27;5.05;;;16.50;99.90;;;;;;5072736;28;20790;-69
2022/07/08 04:00:15;;;;;;;10.80;5.70;;;16.50;99.90;;;;;;5072925;28;20025;-69
2022/07/08 04:02:41;;;;;;;7.45;5.70;;;16.50;99.90;;;;;;5072671;28;20029;-70
2022/07/08 04:05:07;;;;;;;7.90;6.03;;;16.50;99.90;;;;;;5054525;28;20020;-69
2022/07/08 04:07:33;;;;;;;8.93;5.97;;;16.50;99.90;;;;;;5072596;28;20078;-70
2022/07/08 04:09:59;;;;;;;11.30;6.70;;;16.50;99.90;;;;;;5072479;28;20032;-69
2022/07/08 04:12:25;;;;;;;8.80;6.32;;;16.50;99.90;;;;;;5054394;28;20494;-69
2022/07/08 04:14:51;;;;;;;9.00;6.43;;;16.50;99.90;;;;;;5072594;28;20115;-70
2022/07/08 04:17:17;;;;;;;15.07;8.15;;;16.50;99.90;;;;;;5072791;28;20032;-74
2022/07/08 04:19:42;;;;;;;15.40;8.68;;;16.50;99.90;;;;;;5073054;28;20017;-70
2022/07/08 04:22:08;;;;;;;12.05;8.88;;;16.50;99.90;;;;;;5073683;28;20113;-64
2022/07/08 04:24:34;;;;;;;11.15;9.07;;;16.50;99.90;;;;;;5072141;28;20036;-65
2022/07/08 04:27:00;;;;;;;11.40;9.50;;;16.50;99.90;;;;;;5072232;28;20020;-66
2022/07/08 04:29:26;;;;;;;16.00;9.63;;;16.60;99.90;;;;;;5072328;28;20085;-65
2022/07/08 04:31:51;;;;;;;13.32;9.25;;;16.50;99.90;;;;;;5072027;28;20043;-66
2022/07/08 04:34:17;;;;;;;11.88;10.18;;;16.60;99.90;;;;;;5072268;28;20032;-65
2022/07/08 04:36:43;;;;;;;13.13;10.27;;;16.60;99.90;;;;;;5072126;28;20472;-64
2022/07/08 04:39:09;;;;;;;12.30;10.10;;;16.60;99.90;;;;;;5071872;28;20033;-68
2022/07/08 04:41:35;;;;;;;15.65;9.55;;;16.60;99.90;;;;;;5072030;28;20038;-64
2022/07/08 04:44:00;;;;;;;14.00;9.23;;;16.70;99.90;;;;;;5071969;28;20028;-66
2022/07/08 04:46:27;;;;;;;12.63;9.32;;;16.70;99.90;;;;;;5071867;28;20468;-68
2022/07/08 04:48:53;;;;;;;15.35;8.82;;;16.70;99.90;;;;;;5071475;28;20055;-64
2022/07/08 04:51:18;;;;;;;12.63;9.45;;;16.70;99.90;;;;;;5071599;28;20044;-68
2022/07/08 04:53:44;;;;;;;12.60;7.72;;;16.80;99.90;;;;;;5071677;28;20081;-69
2022/07/08 04:56:10;;;;;;;10.80;7.93;;;16.70;99.90;;;;;;5071552;28;20066;-68
2022/07/08 04:58:36;;;;;;;9.85;7.45;;;16.80;99.90;;;;;;5072019;28;20491;-67
2022/07/08 05:01:02;;;;;;;10.25;7.60;;;16.80;99.90;;;;;;5071747;28;20773;-70
2022/07/08 05:03:28;;;;;;;8.88;6.65;;;16.80;99.90;;;;;;5071552;28;20016;-70
2022/07/08 05:05:53;;;;;;;11.50;6.60;;;16.80;99.90;;;;;;5053509;28;20036;-72
2022/07/08 05:08:19;;;;;;;22.88;7.25;;;16.80;99.90;;;;;;5071601;28;20028;-71
2022/07/08 05:10:45;;;;;;;7.65;5.70;;;16.90;99.90;;;;;;5073952;28;20063;-71
2022/07/08 05:13:12;;;;;;;9.43;6.35;;;17.00;99.90;;;;;;5053649;28;20440;-62
2022/07/08 05:15:38;;;;;;;;;;;17.00;99.90;;;;;;5070958;28;20032;-68
2022/07/08 05:18:04;;;;;;;9.50;6.07;;;17.10;99.90;;;;;;5070928;28;19909;-70
2022/07/08 05:20:30;;;;;;;9.18;5.75;;;17.10;99.90;;;;;;5074006;28;20028;-71
2022/07/08 05:22:56;;;;;;;9.57;6.43;;;17.10;99.90;;;;;;5049873;28;20020;-70
2022/07/08 05:25:21;;;;;;;10.18;5.72;;;17.20;99.90;;;;;;5063983;28;20365;-71
2022/07/08 05:27:47;;;;;;;11.35;6.63;;;17.20;99.90;;;;;;5069892;28;20103;-74
2022/07/08 05:30:13;;;;;;;9.38;6.15;;;17.20;99.90;;;;;;5070867;28;20041;-70
2022/07/08 05:32:40;;;;;;;9.30;5.70;;;17.20;99.90;;;;;;5070806;28;20036;-73
2022/07/08 05:35:06;;;;;;;;;;;17.30;99.90;;;;;;5071134;28;20024;-72
2022/07/08 05:37:34;;;;;;;7.28;5.90;;;17.40;99.90;;;;;;5071034;28;19980;-72
2022/07/08 05:40:00;;;;;;;11.95;6.07;;;17.40;99.90;;;;;;5070257;28;20028;-70
2022/07/08 05:42:25;;;;;;;8.43;5.65;;;17.40;99.90;;;;;;5070359;28;20032;-74
2022/07/08 05:44:51;;;;;;;12.20;6.45;;;17.50;99.90;;;;;;5069862;28;20025;-70
2022/07/08 05:47:17;;;;;;;8.52;5.72;;;17.40;99.90;;;;;;5069344;28;20143;-70
2022/07/08 05:49:46;;;;;;;6.43;5.13;;;17.50;99.90;;;;;;5069375;28;20040;-70
2022/07/08 05:52:12;;;;;;;7.70;5.50;;;17.60;99.90;;;;;;5069277;28;20035;-71
2022/07/08 05:54:38;;;;;;;9.85;5.47;;;17.70;99.90;;;;;;5069247;28;20388;-71
2022/07/08 05:57:04;;;;;;;10.57;5.00;;;17.80;99.90;;;;;;5070300;28;20024;-72
2022/07/08 05:59:31;;;;;;;8.95;6.10;;;17.90;99.90;;;;;;5068913;28;20135;-73
2022/07/08 06:01:57;;;;;;;9.82;6.38;;;18.00;99.90;;;;;;5068491;28;20496;-71
2022/07/08 06:04:22;;;;;;;8.23;5.25;;;18.10;99.90;;;;;;5044488;28;20029;-72
2022/07/08 06:06:48;;;;;;;10.40;5.75;;;18.20;99.90;;;;;;5067788;28;20036;-72
2022/07/08 06:09:14;;;;;;;8.07;5.32;;;18.10;99.90;;;;;;5068829;28;20115;-73
2022/07/08 06:11:40;;;;;;;7.03;5.90;;;18.10;99.90;;;;;;5068873;28;20024;-70
2022/07/08 06:14:06;;;;;;;7.28;5.90;;;18.20;99.90;;;;;;5069017;28;20027;-73
2022/07/08 06:16:32;;;;;;;8.00;6.10;;;18.20;99.90;;;;;;5068716;28;20021;-72
2022/07/08 06:18:57;;;;;;;14.35;5.45;;;18.20;99.90;;;;;;5068994;28;20027;-73
2022/07/08 06:21:23;;;;;;;11.77;5.72;;;18.10;99.90;;;;;;5073734;28;20029;-72
2022/07/08 06:23:49;;;;;;;8.55;5.47;;;18.10;99.90;;;;;;5068418;28;20475;-73
2022/07/08 06:26:14;;;;;;;7.30;5.63;;;18.10;99.90;;;;;;5068608;28;20423;-73
2022/07/08 06:28:40;;;;;;;8.10;5.60;;;18.10;99.90;;;;;;5069897;28;20046;-71
2022/07/08 06:31:06;;;;;;;7.30;5.53;;;18.10;99.90;;;;;;5069723;28;20040;-73
2022/07/08 06:33:32;;;;;;;12.20;5.20;;;18.10;99.90;;;;;;5069870;28;20286;-67
2022/07/08 06:35:58;;;;;;;7.22;4.82;;;18.10;99.90;;;;;;5070052;28;20515;-72
2022/07/08 06:38:23;;;;;;;7.25;5.47;;;18.20;99.90;;;;;;5069353;28;20028;-71
2022/07/08 06:40:49;;;;;;;7.50;5.20;;;18.20;99.90;;;;;;5069699;28;20130;-73
2022/07/08 06:43:15;;;;;;;10.27;5.38;;;18.20;99.90;;;;;;5068220;28;20024;-72
2022/07/08 06:45:40;;;;;;;10.77;5.20;;;18.10;99.90;;;;;;5069772;28;20032;-70
2022/07/08 06:48:06;;;;;;;6.90;4.80;;;18.20;99.90;;;;;;5069418;28;20136;-75
2022/07/08 06:50:32;;;;;;;9.43;5.30;;;18.20;99.90;;;;;;5069737;28;20110;-74
2022/07/08 06:52:58;;;;;;;10.15;4.82;;;18.20;99.90;;;;;;5069691;28;20021;-72
2022/07/08 06:55:23;;;;;;;6.40;4.80;;;18.30;99.90;;;;;;5069620;28;20025;-74
2022/07/08 06:57:49;;;;;;;8.35;4.78;;;18.30;99.90;;;;;;5070743;28;20745;-74
2022/07/08 07:00:15;;;;;;;9.23;4.95;;;18.30;99.90;;;;;;5068313;28;20029;-73
2022/07/08 07:02:41;;;;;;;8.00;5.10;;;18.40;99.90;;;;;;5063692;28;20024;-72
2022/07/08 07:05:08;;;;;;;7.78;4.95;;;18.30;99.90;;;;;;5055703;28;20021;-72
2022/07/08 07:07:34;;;;;;;6.32;5.30;;;18.30;99.90;;;;;;5057052;28;20108;-72
2022/07/08 07:10:01;;;;;;;6.32;5.28;;;18.30;99.90;;;;;;5039291;28;20124;-72
2022/07/08 07:12:27;;;;;;;9.20;5.32;;;18.40;99.90;;;;;;5059932;28;20032;-71
2022/07/08 07:14:53;;;;;;;17.02;5.07;;;18.50;99.90;;;;;;5062139;28;20025;-73
2022/07/08 07:17:21;;;;;;;7.25;4.25;;;18.60;99.90;;;;;;5061675;28;20200;-72
2022/07/08 07:19:48;;;;;;;5.82;3.60;;;18.50;99.90;;;;;;5061207;28;20021;-72
2022/07/08 07:22:15;;;;;;;7.78;4.07;;;18.50;99.90;;;;;;5068556;28;20032;-70
2022/07/08 07:24:40;;;;;;;10.02;4.82;;;18.50;99.90;;;;;;5070697;28;20136;-72
2022/07/08 07:27:06;;;;;;;6.72;4.13;;;18.50;99.90;;;;;;5073223;28;20545;-69
2022/07/08 07:29:32;;;;;;;8.50;4.68;;;18.60;99.90;;;;;;5055313;28;20036;-71
2022/07/08 07:31:58;;;;;;;6.40;4.25;;;18.60;99.90;;;;;;5063562;28;20060;-71
2022/07/08 07:34:24;;;;;;;5.40;4.32;;;18.70;99.90;;;;;;5064000;28;20028;-72
2022/07/08 07:36:50;;;;;;;7.05;4.90;;;18.80;99.90;;;;;;5062984;28;20028;-73
2022/07/08 07:39:15;;;;;;;7.53;6.22;;;18.90;99.90;;;;;;5064082;28;20476;-71
2022/07/08 07:41:41;;;;;;;6.60;5.55;;;19.00;99.90;;;;;;5062634;28;20086;-73
2022/07/08 07:44:07;;;;;;;7.78;5.63;;;18.90;99.90;;;;;;5063631;28;20484;-72
2022/07/08 07:46:33;;;;;;;9.30;6.35;;;18.90;99.90;;;;;;5066906;28;20044;-71
2022/07/08 07:48:59;;;;;;;11.55;8.85;;;18.80;99.90;;;;;;5042422;28;20394;-72
2022/07/08 07:51:25;;;;;;;11.85;7.75;;;18.40;99.90;;;;;;5071278;28;20480;-72
2022/07/08 07:53:51;;;;;;;9.98;7.72;;;18.40;99.90;;;;;;5071523;28;20077;-70
2022/07/08 07:56:17;;;;;;;10.35;7.75;;;18.60;99.90;;;;;;5071428;28;20059;-69
2022/07/08 07:58:43;;;;;;;7.60;6.15;;;18.70;99.90;;;;;;5071535;28;20044;-71
2022/07/08 08:01:09;;;;;;;7.32;5.80;;;19.00;99.90;;;;;;5071276;28;20036;-70
2022/07/08 08:03:35;;;;;;;9.70;5.50;;;19.10;99.90;;;;;;5069738;28;20024;-71
2022/07/08 08:06:02;;;;;;;8.00;5.75;;;19.10;99.90;;;;;;5071588;28;20025;-72
2022/07/08 08:08:31;;;;;;;8.35;5.43;;;19.10;99.90;;;;;;5045053;28;20369;-72
2022/07/08 08:10:57;;;;;;;9.35;5.65;;;19.20;99.90;;;;;;5070998;28;20484;-70
2022/07/08 08:13:23;;;;;;;6.05;4.93;;;19.00;99.90;;;;;;5070879;28;20037;-68
2022/07/08 08:15:49;;;;;;;8.23;5.53;;;18.80;99.90;;;;;;5070976;28;20028;-72
2022/07/08 08:18:14;;;;;;;8.73;5.50;;;18.90;99.90;;;;;;5072153;28;20506;-75
2022/07/08 08:20:40;;;;;;;9.15;4.97;;;19.10;99.90;;;;;;5078129;28;20040;-75
2022/07/08 08:23:07;;;;;;;7.78;5.75;;;19.10;99.90;;;;;;5074311;28;20537;-71
2022/07/08 08:25:34;;;;;;;6.60;5.10;;;19.20;99.90;;;;;;5071622;28;20112;-70
2022/07/08 08:27:59;;;;;;;7.28;5.20;;;19.50;99.90;;;;;;5071866;28;20376;-68
2022/07/08 08:30:25;;;;;;;8.23;4.95;;;19.70;99.90;;;;;;5071916;28;20036;-71
2022/07/08 08:32:51;;;;;;;6.55;4.10;;;19.80;99.90;;;;;;5072030;28;20016;-70
2022/07/08 08:35:18;;;;;;;8.82;6.43;;;19.80;99.90;;;;;;5072209;28;20403;-69
2022/07/08 08:37:43;;;;;;;10.10;5.82;;;19.90;99.90;;;;;;5072026;28;20028;-71
2022/07/08 08:40:11;;;;;;;7.50;4.38;;;20.00;99.90;;;;;;5071884;28;20388;-70
2022/07/08 08:42:37;;;;;;;;;;;20.10;99.90;;;;;;5072083;28;20096;-69
2022/07/08 08:45:04;;;;;;;5.80;3.85;;;20.20;99.90;;;;;;5073538;28;19916;-70
2022/07/08 08:47:31;;;;;;;6.20;4.10;;;20.40;99.90;;;;;;5053439;28;20039;-70
2022/07/08 08:50:53;;;;;;;6.55;4.18;;;20.60;99.90;;;;;;5070863;28;20769;-70
2022/07/08 08:52:52;;;;;;;5.60;3.95;;;20.60;99.90;;;;;;5070959;28;20637;-72
2022/07/08 08:55:28;;;;;;;3.92;3.20;;;20.60;99.90;;;;;;5071660;28;20032;-69
2022/07/08 08:57:57;;;;;;;7.70;4.68;;;20.60;99.90;;;;;;5071227;28;20060;-68
2022/07/08 09:00:23;;;;;;;6.10;3.38;;;20.70;99.90;;;;;;5071404;28;20338;-69
2022/07/08 09:02:49;;;;;;;4.20;3.25;;;20.80;99.90;;;;;;5071465;28;20115;-76
2022/07/08 09:05:15;;;;;;;4.88;3.80;;;20.80;99.90;;;;;;5071754;28;20594;-69
2022/07/08 09:07:42;;;;;;;4.75;3.47;;;21.00;99.90;;;;;;5069971;28;20040;-70
2022/07/08 09:10:09;;;;;;;6.03;3.70;;;21.00;99.90;;;;;;5070302;28;20064;-70
2022/07/08 09:12:35;;;;;;;5.38;4.00;;;21.10;99.90;;;;;;5061822;28;20082;-73
2022/07/08 09:15:01;;;;;;;6.45;4.32;;;21.00;99.90;;;;;;5057708;28;20492;-70
2022/07/08 09:17:27;;;;;;;5.28;3.30;;;21.20;99.90;;;;;;5060115;28;20074;-70
2022/07/08 09:19:53;;;;;;;9.18;3.50;;;21.20;99.90;;;;;;5061092;28;20036;-69
2022/07/08 09:22:23;;;;;;;7.30;3.75;;;21.20;99.90;;;;;;5062760;28;20037;-69
2022/07/08 09:24:49;;;;;;;6.07;4.28;;;21.20;99.90;;;;;;5060153;28;20043;-69
2022/07/08 09:27:16;;;;;;;6.30;3.38;;;21.00;99.90;;;;;;5060471;28;20426;-70
2022/07/08 09:29:58;;;;;;;5.63;3.83;;;20.80;99.90;;;;;;5070409;28;20189;-72
2022/07/08 09:32:24;;;;;;;7.13;4.20;;;20.80;99.90;;;;;;5068728;28;20419;-72
2022/07/08 09:34:49;;;;;;;5.45;4.25;;;20.80;99.90;;;;;;5070102;28;20029;-69
2022/07/08 09:37:18;;;;;;;6.35;5.00;;;20.60;99.90;;;;;;5058954;28;20024;-71
2022/07/08 09:39:44;;;;;;;5.90;4.80;;;20.50;99.90;;;;;;5066661;28;20067;-75
2022/07/08 09:42:11;;;;;;;9.35;4.20;;;20.60;99.90;;;;;;5059834;28;20020;-71
2022/07/08 09:44:37;;;;;;;6.00;4.83;;;20.50;99.90;;;;;;5070390;28;20031;-75
2022/07/08 09:47:15;;;;;;;5.87;4.10;;;20.60;99.90;;;;;;5070490;28;20415;-72
2022/07/08 09:49:46;;;;;;;7.88;4.30;;;20.70;99.90;;;;;;5070207;28;20277;-77
2022/07/08 09:52:19;;;;;;;8.23;5.15;;;20.70;99.90;;;;;;5066945;28;20037;-75
2022/07/08 09:54:45;;;;;;;7.90;5.53;;;20.70;99.90;;;;;;5066399;28;20060;-69
2022/07/08 09:57:13;;;;;;;10.40;5.75;;;20.40;99.90;;;;;;5070197;28;20133;-65
2022/07/08 09:59:39;;;;;;;9.90;6.13;;;20.10;99.90;;;;;;5056228;28;20052;-69
2022/07/08 10:02:05;;;;;;;10.57;6.18;;;20.00;99.90;;;;;;5050215;28;20528;-76
2022/07/08 10:04:31;;;;;;;10.30;6.72;;;19.70;99.90;;;;;;5054946;28;20028;-67
2022/07/08 10:06:58;;;;;;;11.63;7.53;;;19.50;99.90;;;;;;5051759;28;20121;-72
2022/07/08 10:09:26;;;;;;;13.68;8.13;;;19.10;99.90;;;;;;5070048;28;20055;-72
2022/07/08 10:11:53;;;;;;;9.70;7.60;;;19.00;99.90;;;;;;5070314;28;20046;-71
2022/07/08 10:14:20;;;;;;;8.32;7.30;;;18.70;99.90;;;;;;5070267;28;20070;-71
2022/07/08 10:16:47;;;;;;;10.90;8.27;;;18.70;99.90;;;;;;5069635;28;20532;-72
2022/07/08 10:19:30;;;;;;;11.60;7.60;;;18.50;99.90;;;;;;5071260;28;20451;-71
2022/07/08 10:21:58;;;;;;;9.38;6.65;;;18.40;99.90;;;;;;5071276;28;20056;-74
2022/07/08 10:24:29;;;;;;;8.75;6.45;;;18.30;99.90;;;;;;5069723;28;20035;-65
2022/07/08 10:27:01;;;;;;;7.80;5.70;;;18.20;99.90;;;;;;5069839;28;20476;-64
2022/07/08 10:29:31;;;;;;;8.10;5.65;;;18.20;99.90;;;;;;5069215;28;20063;-66
2022/07/08 10:31:58;;;;;;;7.78;5.75;;;18.20;99.90;;;;;;5070076;28;20147;-67
2022/07/08 10:34:33;;;;;;;7.57;5.90;;;18.10;99.90;;;;;;5060918;28;20037;-70
2022/07/08 10:37:02;;;;;;;8.50;6.70;;;18.20;99.90;;;;;;5063324;28;20089;-71
2022/07/08 10:39:36;;;;;;;9.25;6.80;;;18.30;99.90;;;;;;5060025;28;20035;-73
2022/07/08 10:42:06;;;;;;;8.60;7.68;;;18.30;99.90;;;;;;5060824;28;20028;-69
2022/07/08 10:44:44;;;;;;;9.50;7.05;;;18.50;99.90;;;;;;5056789;28;20017;-72
2022/07/08 10:47:11;;;;;;;;;;;18.60;99.90;;;;;;5058925;28;20039;-74
2022/07/08 10:49:43;;;;;;;9.48;6.75;;;18.70;99.90;;;;;;5066693;28;19923;-72
2022/07/08 10:52:08;;;;;;;11.32;6.57;;;18.80;99.90;;;;;;5064763;28;20051;-71
2022/07/08 10:54:37;;;;;;;7.93;6.38;;;18.90;99.90;;;;;;5060423;28;20487;-72
2022/07/08 10:57:22;;;;;;;8.27;6.88;;;19.10;99.90;;;;;;5058410;28;20028;-71
2022/07/08 11:00:02;;;;;;;9.38;7.22;;;19.30;99.90;;;;;;5057384;28;20036;-71
2022/07/08 11:02:29;;;;;;;12.40;5.32;;;19.40;99.90;;;;;;5055731;28;20032;-69
2022/07/08 11:04:55;;;;;;;9.33;5.00;;;19.40;99.90;;;;;;5053666;28;20025;-73
2022/07/08 11:07:29;;;;;;;6.43;4.05;;;19.70;99.90;;;;;;5057591;28;20061;-75
2022/07/08 11:10:03;;;;;;;6.32;4.88;;;20.00;99.90;;;;;;5056946;28;20037;-74
2022/07/08 11:12:37;;;;;;;6.63;5.15;;;20.10;99.90;;;;;;5069843;28;20032;-71
2022/07/08 11:15:11;;;;;;;4.97;4.10;;;20.20;99.90;;;;;;5069902;28;20025;-72
2022/07/08 11:17:39;;;;;;;6.32;5.00;;;20.30;99.90;;;;;;5070165;28;20024;-70
2022/07/08 11:20:10;;;;;;;8.75;5.70;;;20.40;99.90;;;;;;5069798;28;20085;-69
2022/07/08 11:22:38;;;;;;;7.55;5.18;;;20.40;99.90;;;;;;5070377;28;20444;-70
2022/07/08 11:25:05;;;;;;;6.35;5.60;;;20.50;99.90;;;;;;5069939;28;20523;-69
2022/07/08 11:27:33;;;;;;;9.85;6.00;;;20.50;99.90;;;;;;5068489;28;20029;-70
2022/07/08 11:30:00;;;;;;;12.30;7.05;;;20.50;99.90;;;;;;5069234;28;20131;-70
2022/07/08 11:32:27;;;;;;;7.35;5.55;;;20.80;99.90;;;;;;5069447;28;20086;-67
2022/07/08 11:34:54;;;;;;;9.67;5.73;;;20.90;99.90;;;;;;5069353;28;20025;-67
2022/07/08 11:37:21;;;;;;;9.65;5.22;;;21.30;99.90;;;;;;5034654;28;20282;-69
2022/07/08 11:39:47;;;;;;;7.60;6.10;;;21.70;99.90;;;;;;5069249;28;20020;-68
2022/07/08 11:42:14;;;;;;;7.05;5.57;;;21.80;99.90;;;;;;5069203;28;20407;-69
2022/07/08 11:44:40;;;;;;;8.95;5.85;;;21.60;99.90;;;;;;5069335;28;20060;-70
2022/07/08 11:47:07;;;;;;;9.32;7.03;;;21.30;99.90;;;;;;5069562;28;20045;-71
2022/07/08 11:49:39;;;;;;;9.40;6.40;;;21.10;99.90;;;;;;5069007;28;20051;-69
2022/07/08 11:52:05;;;;;;;12.90;6.35;;;20.80;99.90;;;;;;5069337;28;20271;-68
2022/07/08 11:54:31;;;;;;;12.90;7.65;;;20.50;99.90;;;;;;5069348;28;20353;-64
2022/07/08 11:56:59;;;;;;;18.48;7.40;;;20.00;99.90;;;;;;5069144;28;20032;-65
2022/07/08 11:59:33;;;;;;;11.90;7.80;;;19.60;99.90;;;;;;5070006;28;20021;-67
2022/07/08 12:02:00;;;;;;;11.52;7.78;;;19.30;99.90;;;;;;5073101;28;20032;-63
2022/07/08 12:04:26;;;;;;;13.52;7.30;;;19.10;99.90;;;;;;5072753;28;20077;-64
2022/07/08 12:06:55;;;;;;;18.37;8.20;;;19.00;99.90;;;;;;5054988;28;20052;-66
2022/07/08 12:09:22;;;;;;;18.63;9.68;;;18.80;99.90;;;;;;5072667;28;20071;-67
2022/07/08 12:11:50;;;;;;;19.45;8.45;;;18.80;99.90;;;;;;5072744;28;20046;-62
2022/07/08 12:14:16;;;;;;;19.92;10.82;;;18.80;99.90;;;;;;5072584;28;20025;-64
2022/07/08 12:16:45;;;;;;;17.60;11.80;;;18.80;99.90;;;;;;5072580;28;20028;-65
2022/07/08 12:19:29;;;;;;;15.50;8.93;;;18.70;99.90;;;;;;5073088;28;20080;-66
2022/07/08 12:21:56;;;;;;;16.83;9.18;;;18.60;99.90;;;;;;5072323;28;20550;-69
2022/07/08 12:24:25;;;;;;;;;;;18.40;99.90;;;;;;5072724;28;20503;-68
2022/07/08 12:26:53;;;;;;;20.00;10.27;;;18.30;99.90;;;;;;5072277;28;19962;-70
2022/07/08 12:29:19;;;;;;;18.23;10.07;;;18.30;99.90;;;;;;5072533;28;20037;-67
2022/07/08 12:31:45;;;;;;;14.77;10.07;;;18.30;99.90;;;;;;5072254;28;20039;-66
2022/07/08 12:34:19;;;;;;;16.83;10.43;;;18.30;99.90;;;;;;5072275;28;20124;-66
2022/07/08 12:36:46;;;;;;;21.92;11.13;;;18.30;99.90;;;;;;5072489;28;20024;-67
2022/07/08 12:39:14;;;;;;;16.38;11.15;;;18.30;99.90;;;;;;5072110;28;20111;-68
2022/07/08 12:41:41;;;;;;;19.95;11.57;;;18.40;99.90;;;;;;5072022;28;20525;-66
2022/07/08 12:44:30;;;;;;;19.08;12.77;;;18.50;99.90;;;;;;5072026;28;20031;-67
2022/07/08 12:46:56;;;;;;;20.08;11.60;;;18.60;99.90;;;;;;5072097;28;20078;-66